Hauptseite
METAR-TAF:

METAR-TAF

Flughäfen :

Flughafen Ibaraki

Hyakuri, Japan

Breite: 36-11N, Länge: 140-25E, Höhe: 32 m

Beobachtung

Neuester Wetterbericht von vor 1 Stunde und 8 Minuten, um 13:00 UTC
Wind 2 kt aus unterschiedlichen Richtungen
Temperatur 14°C
Luftfeuchtigkeit 77%
Luftdruck 1018 hPa
Sichtweite 10 km oder mehr
Leicht bewölkt in der Höhe von 3000 ft
Aufgelockert bewölkt in der Höhe von 8000 ft

METAR: RJAH 251300Z VRB02KT 9999 FEW030 SCT080 14/10 Q1018

Zeit: 23:08 (14:08 UTC)

Prognose

Neuester Wetterbericht von vor 3 Stunden und 0 Minuten, um 11:08 UTC
Gültige Prognose vom 25 um 12 UTC bis 26 um 18 UTC
Wind 4 kt aus Nord
Sichtweite 10 km oder mehr
Leicht bewölkt in der Höhe von 3000 ft
Übergehend zu
vom 25 um 22 UTC bis 26 um 00 UTC
Wind 6 kt aus Süd

TAF: RJAH 251108Z 2512/2618 36004KT 9999 FEW030 BECMG 2522/2600 18006KT

Wetterbeobachtungen und Prognosen von mehr als 4000 Flughäfen (METAR und TAF Bericht).

Die verfügbaren Stationen werden durch gelbe und rote Markierungen auf der Karte dargestellt.

Führen Sie die Maus auf sie, um den Namen der Station zu sehen.

Darauf klicken, um die Beobachtung von Wetterbeobachtungen und Prognosen zu sehen.

Um die Karte zu ändern : klicken Sie auf den grünen Tasten mit einem schwarzen Kreuz Zum Vergrößern, auf den grünen Button mit einem Gedankenstrich zu verkleinern, oder auf die grünen Pfeile für benachbarte Karten.


METAR-TAF: